Darstellungsparameter: Aktuell verwendete Einstellungen:
Skalierung der Graphiken ... ?
xyx+y,   Skalierungsfaktor:      Skalierung: Modus: x, Faktor: 1
Darstellungszeitraum ... ?
Vom - - bis: - -   Zeitraum: 03.08.2020 - 21.10.2020
Min/Max/Avg-Anzeige ... ?
Zeige MMA aktuell
Zeige MMA Monat
Zeige MMA alles
Zeige --A aktuell
Zeige --A Monat
Zeige --A alles
Keine MMA-Anzeige
MMA:
Keine MMA-Graphiken
MMA-Basis: 03.08.2020 - 21.10.2020
Quicknavigation für Darstellung... ?
Tage:      1T, 2T, 3T, 5T -1T -2T -3T -5T +1T +2T +3T +5T
Wochen: 1W, 2W, 3W -1W -2W -3W +1W +2W +3W
Monate: 1M, 3M, 6M -1M -3M -6M +1M +3M +6M
Jahre:    1J, 3J, 5J, 10J -1J -3J -5J -10J +1J +3J +5J +10J
Nutze für die Darstellung ... ?
Originaldaten oder ...
Mittelwerte Minima Maxima auf...
Stundenbasis Tagesbasis Wochenbasis
Monatsbasis Jahresbasis      Datenbasis: Mittelwerte auf Tagesbasis
Darstellen als:
Statistik (Auto) Statistik J:M      Darstellung:

Der gewünschte Datumsbereich war nicht gültig/verfügbar und wurde korrigiert....
Das angegebene Enddatum (02.08.2021 23:59:59) liegt in der Zukunft.


Zur Graphik,    zurück zur Übersicht aller Sensoren.
 
Tabellarische Datenbersicht: ?
 
Sensor: Nr:Datum:Temp:Feuchte:
Aussen-T/F 1 03-08-2020 00:00:00 18.8125 C 30.2222 %
2 04-08-2020 00:00:00 20.01944 C 27.5139 %
3 05-08-2020 00:00:00 20.54444 C 28.1875 %
4 06-08-2020 00:00:00 22.82014 C 26.7500 %
5 07-08-2020 00:00:00 24.83819 C 26.9306 %
6 08-08-2020 00:00:00 27.23056 C 25.4722 %
7 09-08-2020 00:00:00 24.89722 C 26.9583 %
8 10-08-2020 00:00:00 26.58125 C 27.6319 %
9 11-08-2020 00:00:00 26.57986 C 27.6944 %
10 12-08-2020 00:00:00 24.53194 C 33.3958 %
11 13-08-2020 00:00:00 24.15556 C 32.0694 %
12 14-08-2020 00:00:00 24.22639 C 29.9306 %
13 15-08-2020 00:00:00 22.52847 C 33.3611 %
14 16-08-2020 00:00:00 23.01608 C 33.3287 %
15 17-08-2020 00:00:00 22.00069 C 32.0694 %
16 18-08-2020 00:00:00 19.64722 C 33.6319 %
17 19-08-2020 00:00:00 19.99514 C 33.0764 %
18 20-08-2020 00:00:00 24.92847 C 30.1597 %
19 21-08-2020 00:00:00 25.70417 C 25.9653 %
20 22-08-2020 00:00:00 23.12222 C 26.7500 %
21 23-08-2020 00:00:00 19.60972 C 28.1042 %
22 24-08-2020 00:00:00 18.62986 C 28.9931 %
23 25-08-2020 00:00:00 19.32986 C 29.6458 %
24 26-08-2020 00:00:00 21.03819 C 23.8750 %
25 27-08-2020 00:00:00 19.17014 C 29.1458 %
Sensor: Nr:Datum:Temp:Feuchte:
Aussen-T/F 26 28-08-2020 00:00:00 18.33125 C 32.6875 %
27 29-08-2020 00:00:00 16.67083 C 33.7222 %
28 30-08-2020 00:00:00 16.39375 C 34.2917 %
29 31-08-2020 00:00:00 15.79722 C 38.0278 %
30 01-09-2020 00:00:00 15.44097 C 36.7014 %
31 02-09-2020 00:00:00 16.35833 C 34.1458 %
32 03-09-2020 00:00:00 14.34375 C 38.0417 %
33 04-09-2020 00:00:00 20.75069 C 32.0486 %
34 05-09-2020 00:00:00 17.11528 C 33.1597 %
35 06-09-2020 00:00:00 13.4375 C 34.3194 %
36 07-09-2020 00:00:00 14.46806 C 34.1528 %
37 08-09-2020 00:00:00 16.83333 C 32.9444 %
38 09-09-2020 00:00:00 18.66042 C 33.7431 %
39 10-09-2020 00:00:00 18.46458 C 30.3681 %
40 11-09-2020 00:00:00 15.48958 C 33.4097 %
41 12-09-2020 00:00:00 17.60694 C 32.8194 %
42 13-09-2020 00:00:00 17.58264 C 33.1181 %
43 14-09-2020 00:00:00 18.825 C 32.5972 %
44 15-09-2020 00:00:00 20.67778 C 31.9514 %
45 16-09-2020 00:00:00 20.99792 C 30.5764 %
46 17-09-2020 00:00:00 18.14167 C 27.7708 %
47 18-09-2020 00:00:00 16.05694 C 28.6458 %
48 19-09-2020 00:00:00 15.83333 C 28.6389 %
49 20-09-2020 00:00:00 14.71528 C 31.0556 %
50 21-09-2020 00:00:00 14.91458 C 32.5000 %
Sensor: Nr:Datum:Temp:Feuchte:
Aussen-T/F 51 22-09-2020 00:00:00 16.11667 C 32.2500 %
52 23-09-2020 00:00:00 17.92083 C 28.8403 %
53 24-09-2020 00:00:00 16.25417 C 33.3333 %
54 25-09-2020 00:00:00 12.31111 C 36.3958 %
55 26-09-2020 00:00:00 10.10347 C 40.6528 %
56 27-09-2020 00:00:00 10.94444 C 41.1250 %
57 28-09-2020 00:00:00 11.69167 C 38.6736 %
58 29-09-2020 00:00:00 11.77431 C 42.8125 %
59 30-09-2020 00:00:00 14.11111 C 38.7153 %
60 01-10-2020 00:00:00 12.29028 C 40.9444 %
61 02-10-2020 00:00:00 13.37083 C 37.4167 %
62 03-10-2020 00:00:00 13.26319 C 37.8333 %
63 04-10-2020 00:00:00 11.62917 C 38.9236 %
64 05-10-2020 00:00:00 10.97153 C 39.6181 %
65 06-10-2020 00:00:00 12.99722 C 37.3264 %
66 07-10-2020 00:00:00 13.06667 C 34.6597 %
67 08-10-2020 00:00:00 13.22847 C 37.7153 %
68 09-10-2020 00:00:00 12.59375 C 41.7917 %
69 10-10-2020 00:00:00 9.99792 C 37.6597 %
70 11-10-2020 00:00:00 9.97917 C 37.2014 %
71 12-10-2020 00:00:00 9.1875 C 41.7222 %
72 13-10-2020 00:00:00 7.29441 C 42.2238 %
73 14-10-2020 00:00:00 7.53958 C 40.7708 %
74 15-10-2020 00:00:00 8.77153 C 42.0833 %
75 16-10-2020 00:00:00 8.84167 C 42.1250 %
Sensor: Nr:Datum:Temp:Feuchte:
Aussen-T/F 76 17-10-2020 00:00:00 5.93889 C 43.1319 %
77 18-10-2020 00:00:00 8.03542 C 40.4792 %
78 19-10-2020 00:00:00 8.36736 C 41.3056 %
79 20-10-2020 00:00:00 8.59236 C 42.2014 %
80 21-10-2020 00:00:00 11.27692 C 41.5897 %
Sensor: Nr:Datum:Temp:Feuchte:
G-T/H 1 16-08-2020 00:00:00 28.83774 C 49.1132 %
2 17-08-2020 00:00:00 22.89861 C 61.1597 %
3 18-08-2020 00:00:00 21.78472 C 62.2500 %
4 19-08-2020 00:00:00 20.76042 C 62.8056 %
5 20-08-2020 00:00:00 21.42778 C 64.2153 %
6 21-08-2020 00:00:00 23.78681 C 60.8611 %
7 22-08-2020 00:00:00 23.54028 C 51.5833 %
8 23-08-2020 00:00:00 22.34236 C 54.2083 %
9 24-08-2020 00:00:00 21.13958 C 53.8264 %
10 25-08-2020 00:00:00 20.35139 C 56.7569 %
11 26-08-2020 00:00:00 20.64931 C 57.0625 %
12 27-08-2020 00:00:00 20.16944 C 57.9792 %
13 28-08-2020 00:00:00 19.75903 C 60.7222 %
14 29-08-2020 00:00:00 18.92847 C 61.1806 %
15 30-08-2020 00:00:00 18.35694 C 63.0694 %
16 31-08-2020 00:00:00 18.39792 C 64.6944 %
17 01-09-2020 00:00:00 17.98125 C 66.3125 %
18 02-09-2020 00:00:00 18.01667 C 60.1667 %
19 03-09-2020 00:00:00 17.69861 C 62.8542 %
20 04-09-2020 00:00:00 18.82847 C 66.3056 %
21 05-09-2020 00:00:00 19.28889 C 64.4444 %
22 06-09-2020 00:00:00 18.08056 C 57.0833 %
23 07-09-2020 00:00:00 17.27153 C 55.0972 %
24 08-09-2020 00:00:00 17.67083 C 55.2569 %
25 09-09-2020 00:00:00 18.06458 C 61.2014 %
Sensor: Nr:Datum:Temp:Feuchte:
G-T/H 26 10-09-2020 00:00:00 18.65208 C 58.8194 %
27 11-09-2020 00:00:00 18.21875 C 54.8403 %
28 12-09-2020 00:00:00 17.77361 C 59.5764 %
29 13-09-2020 00:00:00 18.46667 C 59.0000 %
30 14-09-2020 00:00:00 19.90417 C 56.0208 %
31 15-09-2020 00:00:00 19.45278 C 58.5278 %
32 16-09-2020 00:00:00 19.31111 C 61.5972 %
33 17-09-2020 00:00:00 19.19097 C 59.8681 %
34 18-09-2020 00:00:00 17.71667 C 58.8681 %
35 19-09-2020 00:00:00 18.09583 C 51.6806 %
36 20-09-2020 00:00:00 16.47431 C 50.9097 %
37 21-09-2020 00:00:00 16.33125 C 57.3403 %
38 22-09-2020 00:00:00 17.15069 C 57.0000 %
39 23-09-2020 00:00:00 17.37778 C 58.4792 %
40 24-09-2020 00:00:00 17.76528 C 58.3125 %
41 25-09-2020 00:00:00 16.23056 C 57.3264 %
42 26-09-2020 00:00:00 15.11111 C 62.6597 %
43 27-09-2020 00:00:00 14.62083 C 67.2569 %
44 28-09-2020 00:00:00 14.80417 C 68.7500 %
45 29-09-2020 00:00:00 14.98889 C 69.8125 %
46 30-09-2020 00:00:00 15.23333 C 70.9514 %
47 01-10-2020 00:00:00 15.42639 C 70.8750 %
48 02-10-2020 00:00:00 15.06736 C 71.0347 %
49 03-10-2020 00:00:00 15.58819 C 71.4722 %
50 04-10-2020 00:00:00 14.95556 C 71.5764 %
Sensor: Nr:Datum:Temp:Feuchte:
G-T/H 51 05-10-2020 00:00:00 14.51806 C 72.2708 %
52 06-10-2020 00:00:00 14.77986 C 73.0000 %
53 07-10-2020 00:00:00 14.95069 C 72.7708 %
54 08-10-2020 00:00:00 14.87292 C 72.7222 %
55 09-10-2020 00:00:00 15.37153 C 73.7014 %
56 10-10-2020 00:00:00 14.53542 C 71.1528 %
57 11-10-2020 00:00:00 13.96597 C 68.0556 %
58 12-10-2020 00:00:00 13.85208 C 68.7014 %
59 13-10-2020 00:00:00 13.15105 C 67.5524 %
60 14-10-2020 00:00:00 12.48056 C 67.6111 %
61 15-10-2020 00:00:00 12.82361 C 71.0347 %
62 16-10-2020 00:00:00 13.03819 C 71.9583 %
63 17-10-2020 00:00:00 12.16389 C 68.6458 %
64 18-10-2020 00:00:00 12.17778 C 71.2708 %
65 19-10-2020 00:00:00 12.32361 C 70.8056 %
66 20-10-2020 00:00:00 12.04306 C 69.4167 %
67 21-10-2020 00:00:00 12.63333 C 72.7436 %

Maximal/Minimal-Werte vom 03.08.2020 - 21.10.2020

Sensor Min Max Avg
Temp
(Aussen-T/F)
2.1 °C
17-10-2020  04:58:18
44.3 °C
08-08-2020  16:51:17
16.63 °C
Feuchte
(Aussen-T/F)
20 %
03-08-2020  12:41:17
48 %
14-10-2020  03:58:17
33.98 %
Temp
(G-T/H)
10.9 °C
19-10-2020  10:48:17
28.9 °C
16-08-2020  15:23:36
17.25 °C
Feuchte
(G-T/H)
34 %
19-09-2020  18:36:17
74 %
08-10-2020  16:28:17
63.26 %

Die Daten stammen von einer Davis Vantage Pro 2 Wetter-Station und werden unter Linux mit der Software wview2wettercgi und aufbereitet. Alle Angaben erfolgen ohne Gewähr für ihre Vollständigkeit oder Richtigkeit.
Kontakt: Rainer Krienke krienke@uni-koblenz.de . Meine Webseiten an der Uni Koblenz oder privat.
Version: $Revision: 0.78 $